createdAt,value
2023-01-21T00:00:57.377Z,6.80
2023-01-21T00:03:45.329Z,6.03
2023-01-21T00:06:32.375Z,7.03
2023-01-21T00:09:19.317Z,6.33
2023-01-21T00:12:06.394Z,7.07
2023-01-21T00:14:53.320Z,6.20
2023-01-21T00:17:40.313Z,6.50
2023-01-21T00:20:27.317Z,6.87
2023-01-21T00:23:14.943Z,6.20
2023-01-21T00:26:04.150Z,7.10
2023-01-21T00:28:51.062Z,6.47
2023-01-21T00:31:38.791Z,6.97
2023-01-21T00:34:25.773Z,6.57
2023-01-21T00:37:12.825Z,7.10
2023-01-21T00:40:00.112Z,7.13
2023-01-21T00:42:47.125Z,5.93
2023-01-21T00:45:34.032Z,6.27
2023-01-21T00:48:21.157Z,6.70
2023-01-21T00:51:09.797Z,7.10
2023-01-21T00:53:56.913Z,6.97
2023-01-21T00:56:43.856Z,6.90
2023-01-21T00:59:30.918Z,6.73
2023-01-21T01:02:17.903Z,6.23
2023-01-21T01:05:05.938Z,6.93
2023-01-21T01:07:53.099Z,6.27
2023-01-21T01:10:40.029Z,7.20
2023-01-21T01:13:27.829Z,6.97
2023-01-21T01:16:16.204Z,5.93
2023-01-21T01:19:03.224Z,7.13
2023-01-21T01:21:50.155Z,6.93
2023-01-21T01:24:37.132Z,6.93
2023-01-21T01:27:24.062Z,6.23
2023-01-21T01:30:11.638Z,6.47
2023-01-21T01:32:58.635Z,7.27
2023-01-21T01:35:49.458Z,7.00
2023-01-21T01:38:36.413Z,6.87
2023-01-21T01:41:27.421Z,6.60
2023-01-21T01:44:52.036Z,6.47
2023-01-21T01:47:44.464Z,6.97
2023-01-21T01:50:35.211Z,6.47
2023-01-21T01:53:22.797Z,6.73
2023-01-21T01:56:09.844Z,5.83
2023-01-21T01:58:57.276Z,6.70
2023-01-21T02:01:44.782Z,6.23
2023-01-21T02:04:37.875Z,6.03
2023-01-21T02:07:28.128Z,6.60
2023-01-21T02:10:19.934Z,6.50
2023-01-21T02:13:07.215Z,5.80
2023-01-21T02:16:37.463Z,6.63
2023-01-21T02:19:45.656Z,6.00
2023-01-21T02:22:57.513Z,5.90
2023-01-21T02:25:50.546Z,6.57
2023-01-21T02:29:10.327Z,5.67
2023-01-21T02:32:36.119Z,6.10
2023-01-21T02:35:59.349Z,6.67
2023-01-21T02:38:48.880Z,6.67
2023-01-21T02:41:55.876Z,6.80
2023-01-21T02:45:16.166Z,6.40
2023-01-21T02:48:10.756Z,6.70
2023-01-21T02:50:58.158Z,6.60
2023-01-21T02:53:45.179Z,6.97
2023-01-21T02:56:32.106Z,6.43
2023-01-21T02:59:19.066Z,6.77
2023-01-21T03:02:27.673Z,7.07
2023-01-21T03:05:31.383Z,6.93
2023-01-21T03:08:22.136Z,7.00
2023-01-21T03:11:18.209Z,6.60
2023-01-21T03:14:34.748Z,6.80
2023-01-21T03:17:46.773Z,6.80
2023-01-21T03:20:47.856Z,6.63
2023-01-21T03:23:39.869Z,6.70
2023-01-21T03:26:32.313Z,6.63
2023-01-21T03:29:24.342Z,6.67
2023-01-21T03:32:14.153Z,6.93
2023-01-21T03:35:04.655Z,6.53
2023-01-21T03:38:09.014Z,5.93
2023-01-21T03:41:07.377Z,6.87
2023-01-21T03:43:54.391Z,6.33
2023-01-21T03:46:49.847Z,6.30
2023-01-21T03:49:51.572Z,6.93
2023-01-21T03:52:41.250Z,6.90
2023-01-21T03:55:28.195Z,6.70
2023-01-21T03:58:15.141Z,6.53
2023-01-21T04:01:02.085Z,7.30
2023-01-21T04:03:49.142Z,7.13
2023-01-21T04:06:37.022Z,7.17
2023-01-21T04:09:24.012Z,7.10
2023-01-21T04:12:11.275Z,6.27
2023-01-21T04:14:58.256Z,7.63
2023-01-21T04:17:45.184Z,7.03
2023-01-21T04:20:32.163Z,6.87
2023-01-21T04:23:19.119Z,7.33
2023-01-21T04:26:06.236Z,7.07
2023-01-21T04:28:53.507Z,7.50
2023-01-21T04:31:40.493Z,6.80
2023-01-21T04:34:27.523Z,6.80
2023-01-21T04:37:14.481Z,7.10
2023-01-21T04:40:01.570Z,6.80
2023-01-21T04:42:48.671Z,7.37
2023-01-21T04:45:35.716Z,6.73
2023-01-21T04:48:22.657Z,6.93
2023-01-21T04:51:09.680Z,7.10
2023-01-21T04:53:56.649Z,6.97
2023-01-21T04:56:43.613Z,6.67
2023-01-21T04:59:30.582Z,7.37
2023-01-21T05:02:17.560Z,6.90
2023-01-21T05:05:04.867Z,6.60
2023-01-21T05:07:55.233Z,6.67
2023-01-21T05:10:42.150Z,6.83
2023-01-21T05:13:29.073Z,6.83
2023-01-21T05:16:15.991Z,7.13
2023-01-21T05:19:02.918Z,6.93
2023-01-21T05:21:49.877Z,7.43
2023-01-21T05:24:36.956Z,7.10
2023-01-21T05:27:23.888Z,7.13
2023-01-21T05:30:11.201Z,7.27
2023-01-21T05:32:58.149Z,7.03
2023-01-21T05:35:45.088Z,6.60
2023-01-21T05:38:32.376Z,7.07
2023-01-21T05:41:19.375Z,7.03
2023-01-21T05:44:08.516Z,7.17
2023-01-21T05:46:55.445Z,6.90
2023-01-21T05:49:42.472Z,6.80
2023-01-21T05:52:29.429Z,7.03
2023-01-21T05:55:16.452Z,7.47
2023-01-21T05:58:04.886Z,7.43
2023-01-21T06:00:52.231Z,6.90
2023-01-21T06:03:39.199Z,7.00
2023-01-21T06:06:26.155Z,7.27
2023-01-21T06:09:13.087Z,7.20
2023-01-21T06:12:00.068Z,7.30
2023-01-21T06:14:46.993Z,7.60
2023-01-21T06:17:33.971Z,7.40
2023-01-21T06:20:21.467Z,7.70
2023-01-21T06:23:08.431Z,7.43
2023-01-21T06:26:00.651Z,7.87
2023-01-21T06:28:47.559Z,7.43
2023-01-21T06:31:34.726Z,7.60
2023-01-21T06:34:21.787Z,7.70
2023-01-21T06:37:08.724Z,8.70
2023-01-21T06:39:56.453Z,7.47
2023-01-21T06:42:46.719Z,7.60
2023-01-21T06:45:33.625Z,7.73
2023-01-21T06:48:20.552Z,7.43
2023-01-21T06:51:07.512Z,7.53
2023-01-21T06:53:54.641Z,7.30
2023-01-21T06:56:43.617Z,7.43
2023-01-21T06:59:30.608Z,7.93
2023-01-21T07:02:17.582Z,6.60
2023-01-21T07:05:05.326Z,8.40
2023-01-21T07:07:56.636Z,8.00
2023-01-21T07:10:44.586Z,7.30
2023-01-21T07:13:33.162Z,7.63
2023-01-21T07:16:20.191Z,7.53
2023-01-21T07:19:07.232Z,7.67
2023-01-21T07:21:54.756Z,7.50
2023-01-21T07:24:41.660Z,7.80
2023-01-21T07:27:28.773Z,8.30
2023-01-21T07:30:19.023Z,7.37
2023-01-21T07:33:07.787Z,7.93
2023-01-21T07:35:55.450Z,7.80
2023-01-21T07:38:42.516Z,7.47
2023-01-21T07:41:29.478Z,8.60
2023-01-21T07:44:16.438Z,7.93
2023-01-21T07:47:03.651Z,7.80
2023-01-21T07:49:50.639Z,7.90
2023-01-21T07:52:37.778Z,7.83
2023-01-21T07:55:24.892Z,7.77
2023-01-21T07:58:12.084Z,7.90
2023-01-21T08:00:59.692Z,8.37
2023-01-21T08:03:46.606Z,8.23
2023-01-21T08:06:33.549Z,7.83
2023-01-21T08:09:20.444Z,8.10
2023-01-21T08:12:08.596Z,10.17
2023-01-21T08:14:55.490Z,10.37
2023-01-21T08:17:43.454Z,8.97
2023-01-21T08:20:30.412Z,8.43
2023-01-21T08:23:17.388Z,8.07
2023-01-21T08:26:05.700Z,8.13
2023-01-21T08:28:55.772Z,8.03
2023-01-21T08:31:42.731Z,8.30
2023-01-21T08:34:29.706Z,8.47
2023-01-21T08:37:17.059Z,8.40
2023-01-21T08:40:04.223Z,8.33
2023-01-21T08:42:51.171Z,8.60
2023-01-21T08:45:38.101Z,8.60
2023-01-21T08:48:25.192Z,7.23
2023-01-21T08:51:12.165Z,8.23
2023-01-21T08:53:59.218Z,8.93
2023-01-21T08:56:46.143Z,8.47
2023-01-21T08:59:33.041Z,7.77
2023-01-21T09:02:20.005Z,7.97
2023-01-21T09:05:07.510Z,7.43
2023-01-21T09:07:56.689Z,7.70
2023-01-21T09:11:03.411Z,8.30
2023-01-21T09:13:50.687Z,8.03
2023-01-21T09:16:37.687Z,7.60
2023-01-21T09:19:25.096Z,7.77
2023-01-21T09:22:13.773Z,7.80
2023-01-21T09:25:10.086Z,8.00
2023-01-21T09:27:57.028Z,7.57
2023-01-21T09:30:44.166Z,7.67
2023-01-21T09:33:33.184Z,7.57
2023-01-21T09:36:23.054Z,7.77
2023-01-21T09:39:09.967Z,6.97
2023-01-21T09:41:58.106Z,8.13
2023-01-21T09:44:49.180Z,7.50
2023-01-21T09:47:41.504Z,7.60
2023-01-21T09:50:28.715Z,7.67
2023-01-21T09:53:32.312Z,7.17
2023-01-21T09:56:41.647Z,7.97
2023-01-21T09:59:47.949Z,7.67
2023-01-21T10:02:42.232Z,7.57
2023-01-21T10:06:09.681Z,7.60
2023-01-21T10:09:15.035Z,8.10
2023-01-21T10:12:07.615Z,7.43
2023-01-21T10:15:12.715Z,7.47
2023-01-21T10:18:17.198Z,6.43
2023-01-21T10:21:25.490Z,7.33
2023-01-21T10:24:16.965Z,6.90
2023-01-21T10:27:05.129Z,6.40
2023-01-21T10:29:57.881Z,7.00
2023-01-21T10:32:46.795Z,6.70
2023-01-21T10:35:46.079Z,7.10
2023-01-21T10:38:41.344Z,6.37
2023-01-21T10:41:33.878Z,6.60
2023-01-21T10:44:45.813Z,6.83
2023-01-21T10:47:50.304Z,6.77
2023-01-21T10:50:59.858Z,6.47
2023-01-21T10:53:51.825Z,6.67
2023-01-21T10:56:47.597Z,6.03
2023-01-21T10:59:37.359Z,5.93
2023-01-21T11:02:32.969Z,6.37
2023-01-21T11:05:20.771Z,5.87
2023-01-21T11:08:18.325Z,6.63
2023-01-21T11:11:08.791Z,6.07
2023-01-21T11:13:56.093Z,6.03
2023-01-21T11:16:47.099Z,5.73
2023-01-21T11:19:34.025Z,5.93
2023-01-21T11:22:23.449Z,6.50
2023-01-21T11:25:26.090Z,6.10
2023-01-21T11:28:25.570Z,6.10
2023-01-21T11:31:15.344Z,6.23
2023-01-21T11:34:17.079Z,5.70
2023-01-21T11:37:06.803Z,5.63
2023-01-21T11:39:59.344Z,6.17
2023-01-21T11:42:57.184Z,6.03
2023-01-21T11:45:44.171Z,5.70
2023-01-21T11:48:31.119Z,5.93
2023-01-21T11:51:18.205Z,6.50
2023-01-21T11:54:25.400Z,5.47
2023-01-21T11:57:26.888Z,5.90
2023-01-21T12:00:20.805Z,5.20
2023-01-21T12:03:16.558Z,5.37
2023-01-21T12:06:05.100Z,4.90
2023-01-21T12:08:56.018Z,5.13
2023-01-21T12:11:47.855Z,5.23
2023-01-21T12:14:47.466Z,5.30
2023-01-21T12:18:02.098Z,4.90
2023-01-21T12:21:24.554Z,5.23
2023-01-21T12:24:23.026Z,4.73
2023-01-21T12:27:30.136Z,4.40
2023-01-21T12:30:25.464Z,4.50
2023-01-21T12:33:18.147Z,4.10
2023-01-21T12:36:13.622Z,3.97
2023-01-21T12:39:19.165Z,3.77
2023-01-21T12:42:15.814Z,3.80
2023-01-21T12:45:18.367Z,3.73
2023-01-21T12:48:17.711Z,3.83
2023-01-21T12:51:10.602Z,3.50
2023-01-21T12:54:11.669Z,3.60
2023-01-21T12:57:06.657Z,3.20
2023-01-21T12:59:58.323Z,3.43
2023-01-21T13:02:51.453Z,3.43
2023-01-21T13:05:53.774Z,2.77
2023-01-21T13:08:56.586Z,2.90
2023-01-21T13:11:51.218Z,3.10
2023-01-21T13:14:42.820Z,3.40
2023-01-21T13:17:34.224Z,2.97
2023-01-21T13:20:22.586Z,3.00
2023-01-21T13:23:29.247Z,3.50
2023-01-21T13:26:36.032Z,3.10
2023-01-21T13:29:41.247Z,3.23
2023-01-21T13:32:40.378Z,3.00
2023-01-21T13:35:49.103Z,2.90
2023-01-21T13:38:50.829Z,2.83
2023-01-21T13:41:46.735Z,3.17
2023-01-21T13:44:51.843Z,2.80
2023-01-21T13:48:11.031Z,2.77
2023-01-21T13:51:03.778Z,2.37
2023-01-21T13:54:19.261Z,2.70
2023-01-21T13:57:47.109Z,2.63
2023-01-21T14:00:37.186Z,2.43
2023-01-21T14:04:01.385Z,2.67
2023-01-21T14:07:00.160Z,2.53
2023-01-21T14:09:59.500Z,2.60
2023-01-21T14:13:11.919Z,2.43
2023-01-21T14:16:10.781Z,3.30
2023-01-21T14:19:19.341Z,2.47
2023-01-21T14:22:47.434Z,2.80
2023-01-21T14:26:12.934Z,2.43
2023-01-21T14:29:24.277Z,2.40
2023-01-21T14:32:20.899Z,2.27
2023-01-21T14:35:13.875Z,2.50
2023-01-21T14:38:13.086Z,2.30
2023-01-21T14:41:06.472Z,2.43
2023-01-21T14:43:53.431Z,2.47
2023-01-21T14:46:40.354Z,2.73
2023-01-21T14:49:44.254Z,2.83
2023-01-21T14:52:41.464Z,2.90
2023-01-21T14:55:31.407Z,3.13
2023-01-21T14:58:22.672Z,3.13
2023-01-21T15:01:25.976Z,3.40
2023-01-21T15:04:21.873Z,2.43
2023-01-21T15:07:17.589Z,3.30
2023-01-21T15:10:14.740Z,3.10
2023-01-21T15:13:05.224Z,3.33
2023-01-21T15:16:15.978Z,2.90
2023-01-21T15:19:25.060Z,3.10
2023-01-21T15:22:19.561Z,2.73
2023-01-21T15:25:20.630Z,3.30
2023-01-21T15:28:30.947Z,3.03
2023-01-21T15:31:20.691Z,2.97
2023-01-21T15:34:15.306Z,3.10
2023-01-21T15:37:02.301Z,3.20
2023-01-21T15:39:52.896Z,3.17
2023-01-21T15:43:02.837Z,2.70
2023-01-21T15:45:54.299Z,3.30
2023-01-21T15:48:58.324Z,3.30
2023-01-21T15:51:52.386Z,2.80
2023-01-21T15:55:10.535Z,3.17
2023-01-21T15:58:15.966Z,3.57
2023-01-21T16:01:18.035Z,3.17
2023-01-21T16:04:32.579Z,3.07
2023-01-21T16:07:39.958Z,2.70
2023-01-21T16:10:34.107Z,2.80
2023-01-21T16:13:57.575Z,3.13
2023-01-21T16:17:12.061Z,3.00
2023-01-21T16:20:01.540Z,2.90
2023-01-21T16:22:53.178Z,3.30
2023-01-21T16:25:52.033Z,3.23
2023-01-21T16:28:44.309Z,3.83
2023-01-21T16:31:45.382Z,3.37
2023-01-21T16:34:43.028Z,3.70
2023-01-21T16:37:31.471Z,3.37
2023-01-21T16:40:29.447Z,3.70
2023-01-21T16:43:25.884Z,3.50
2023-01-21T16:46:16.216Z,4.17
2023-01-21T16:49:07.085Z,3.77
2023-01-21T16:52:00.456Z,3.93
2023-01-21T16:54:48.957Z,4.30
2023-01-21T16:57:35.916Z,3.83
2023-01-21T17:00:29.715Z,3.90
2023-01-21T17:03:19.553Z,3.70
2023-01-21T17:06:29.264Z,3.77
2023-01-21T17:09:25.648Z,3.50
2023-01-21T17:12:23.842Z,3.33
2023-01-21T17:15:24.263Z,3.60
2023-01-21T17:18:22.701Z,3.80
2023-01-21T17:21:13.023Z,3.70
2023-01-21T17:24:04.144Z,3.33
2023-01-21T17:27:00.625Z,3.57
2023-01-21T17:29:47.526Z,3.60
2023-01-21T17:32:34.427Z,3.40
2023-01-21T17:35:23.699Z,3.40
2023-01-21T17:38:29.321Z,3.27
2023-01-21T17:41:27.140Z,3.23
2023-01-21T17:44:20.812Z,3.50
2023-01-21T17:47:22.658Z,3.30
2023-01-21T17:50:31.780Z,3.60
2023-01-21T17:53:24.713Z,3.60
2023-01-21T17:56:11.822Z,3.70
2023-01-21T17:59:02.470Z,3.60
2023-01-21T18:01:49.445Z,3.80
2023-01-21T18:04:36.461Z,3.90
2023-01-21T18:07:26.218Z,3.53
2023-01-21T18:10:24.198Z,3.87
2023-01-21T18:13:19.202Z,3.63
2023-01-21T18:16:06.485Z,3.83
2023-01-21T18:18:54.080Z,3.83
2023-01-21T18:21:41.086Z,3.90
2023-01-21T18:24:28.262Z,4.20
2023-01-21T18:27:15.473Z,4.30
2023-01-21T18:30:02.428Z,3.70
2023-01-21T18:32:52.258Z,3.50
2023-01-21T18:35:41.915Z,5.10
2023-01-21T18:38:31.593Z,4.57
2023-01-21T18:41:19.699Z,4.33
2023-01-21T18:44:06.683Z,5.10
2023-01-21T18:46:53.651Z,5.23
2023-01-21T18:49:40.972Z,5.50
2023-01-21T18:52:28.573Z,8.23
2023-01-21T18:55:17.561Z,9.40
2023-01-21T18:58:11.469Z,8.53
2023-01-21T19:00:58.426Z,7.33
2023-01-21T19:03:46.276Z,9.03
2023-01-21T19:06:34.287Z,8.13
2023-01-21T19:09:25.137Z,9.37
2023-01-21T19:12:20.929Z,12.77
2023-01-21T19:15:19.730Z,8.43
2023-01-21T19:18:11.378Z,5.90
2023-01-21T19:20:58.288Z,5.87
2023-01-21T19:23:45.326Z,6.33
2023-01-21T19:26:32.590Z,6.50
2023-01-21T19:29:24.691Z,5.20
2023-01-21T19:32:14.764Z,5.67
2023-01-21T19:35:01.860Z,5.57
2023-01-21T19:37:51.504Z,5.23
2023-01-21T19:40:38.487Z,5.60
2023-01-21T19:43:25.436Z,10.80
2023-01-21T19:46:12.948Z,12.17
2023-01-21T19:49:01.112Z,10.40
2023-01-21T19:51:48.263Z,9.63
2023-01-21T19:54:35.180Z,8.17
2023-01-21T19:57:22.171Z,8.43
2023-01-21T20:00:25.251Z,7.37
2023-01-21T20:03:12.873Z,5.87
2023-01-21T20:06:04.212Z,5.53
2023-01-21T20:08:52.047Z,5.60
2023-01-21T20:11:39.002Z,5.83
2023-01-21T20:14:25.931Z,6.23
2023-01-21T20:17:13.786Z,6.00
2023-01-21T20:20:00.762Z,6.23
2023-01-21T20:22:48.035Z,6.20
2023-01-21T20:25:37.617Z,4.97
2023-01-21T20:28:35.923Z,4.70
2023-01-21T20:31:22.993Z,4.80
2023-01-21T20:34:11.415Z,5.50
2023-01-21T20:36:59.192Z,4.60
2023-01-21T20:39:46.107Z,4.60
2023-01-21T20:42:33.020Z,4.60
2023-01-21T20:45:23.274Z,4.57
2023-01-21T20:48:19.851Z,4.23
2023-01-21T20:51:06.980Z,4.40
2023-01-21T20:53:54.245Z,4.20
2023-01-21T20:56:41.256Z,4.27
2023-01-21T20:59:28.144Z,4.77
2023-01-21T21:02:15.109Z,5.00
2023-01-21T21:05:02.022Z,4.60
2023-01-21T21:07:49.116Z,4.67
2023-01-21T21:10:36.267Z,4.67
2023-01-21T21:13:23.184Z,5.20
2023-01-21T21:16:19.805Z,5.93
2023-01-21T21:19:06.813Z,6.20
2023-01-21T21:21:53.747Z,7.17
2023-01-21T21:24:40.639Z,7.23
2023-01-21T21:27:27.550Z,6.20
2023-01-21T21:30:17.619Z,6.60
2023-01-21T21:33:04.817Z,5.33
2023-01-21T21:35:51.866Z,5.53
2023-01-21T21:38:38.778Z,5.23
2023-01-21T21:41:45.146Z,5.63
2023-01-21T21:44:32.100Z,5.10
2023-01-21T21:47:37.695Z,5.60
2023-01-21T21:50:24.595Z,5.40
2023-01-21T21:53:11.906Z,6.20
2023-01-21T21:56:09.987Z,5.83
2023-01-21T21:58:56.999Z,6.27
2023-01-21T22:01:44.155Z,5.93
2023-01-21T22:04:31.199Z,5.90
2023-01-21T22:07:18.108Z,6.43
2023-01-21T22:10:07.168Z,6.63
2023-01-21T22:12:54.086Z,6.17
2023-01-21T22:15:41.067Z,5.80
2023-01-21T22:18:29.641Z,6.73
2023-01-21T22:21:19.391Z,6.83
2023-01-21T22:24:08.022Z,7.00
2023-01-21T22:26:55.115Z,6.27
2023-01-21T22:29:42.160Z,7.13
2023-01-21T22:32:29.078Z,6.70
2023-01-21T22:35:16.358Z,6.60
2023-01-21T22:38:03.434Z,6.90
2023-01-21T22:40:54.652Z,6.67
2023-01-21T22:43:44.801Z,6.97
2023-01-21T22:46:33.664Z,6.77
2023-01-21T22:49:20.653Z,6.60
2023-01-21T22:52:07.626Z,6.70
2023-01-21T22:54:54.611Z,6.90
2023-01-21T22:57:41.584Z,7.10
2023-01-21T23:00:40.369Z,6.97
2023-01-21T23:03:27.911Z,6.77
2023-01-21T23:06:14.898Z,7.03
2023-01-21T23:09:01.824Z,6.77
2023-01-21T23:11:49.274Z,7.00
2023-01-21T23:14:36.155Z,6.43
2023-01-21T23:17:23.069Z,6.47
2023-01-21T23:20:10.435Z,6.37
2023-01-21T23:22:58.305Z,6.53
2023-01-21T23:25:46.700Z,6.20
2023-01-21T23:28:34.239Z,6.73
2023-01-21T23:31:21.377Z,6.60
2023-01-21T23:34:13.161Z,6.87
2023-01-21T23:37:00.108Z,6.93
2023-01-21T23:39:47.052Z,6.57
2023-01-21T23:42:33.971Z,6.73
2023-01-21T23:45:20.871Z,7.23
2023-01-21T23:48:07.754Z,6.73
2023-01-21T23:50:54.688Z,7.13
2023-01-21T23:53:41.916Z,6.80
2023-01-21T23:56:28.831Z,7.40
2023-01-21T23:59:15.750Z,6.50
